sensor_id;sensor_type;location;lat;lon;timestamp;pressure;altitude;pressure_sealevel;temperature;humidity
5952;BME280;3001;42.622;23.194;2023-11-21T00:01:40;91078.06;;;7.57;86.57
5952;BME280;3001;42.622;23.194;2023-11-21T00:04:07;91073.47;;;7.54;86.32
5952;BME280;3001;42.622;23.194;2023-11-21T00:06:35;91065.78;;;7.76;85.72
5952;BME280;3001;42.622;23.194;2023-11-21T00:09:01;91065.78;;;7.76;85.81
5952;BME280;3001;42.622;23.194;2023-11-21T00:11:28;91064.09;;;7.58;86.47
5952;BME280;3001;42.622;23.194;2023-11-21T00:13:55;91068.69;;;7.61;85.94
5952;BME280;3001;42.622;23.194;2023-11-21T00:16:22;91066.47;;;7.68;85.56
5952;BME280;3001;42.622;23.194;2023-11-21T00:18:50;91060.63;;;7.76;85.59
5952;BME280;3001;42.622;23.194;2023-11-21T00:21:17;91062.47;;;7.62;86.09
5952;BME280;3001;42.622;23.194;2023-11-21T00:23:45;91069.75;;;7.60;86.66
5952;BME280;3001;42.622;23.194;2023-11-21T00:26:12;91070.78;;;7.45;87.91
5952;BME280;3001;42.622;23.194;2023-11-21T00:28:39;91067.44;;;7.58;86.66
5952;BME280;3001;42.622;23.194;2023-11-21T00:31:07;91068.28;;;7.27;87.60
5952;BME280;3001;42.622;23.194;2023-11-21T00:33:33;91067.22;;;7.28;89.13
5952;BME280;3001;42.622;23.194;2023-11-21T00:36:00;91067.44;;;7.45;88.41
5952;BME280;3001;42.622;23.194;2023-11-21T00:38:27;91067.72;;;7.43;88.24
5952;BME280;3001;42.622;23.194;2023-11-21T00:40:55;91067.81;;;7.25;88.82
5952;BME280;3001;42.622;23.194;2023-11-21T00:43:21;91069.09;;;7.09;88.64
5952;BME280;3001;42.622;23.194;2023-11-21T00:45:48;91073.34;;;7.18;88.67
5952;BME280;3001;42.622;23.194;2023-11-21T00:48:15;91076.59;;;7.24;88.28
5952;BME280;3001;42.622;23.194;2023-11-21T00:50:42;91068.97;;;7.32;87.05
5952;BME280;3001;42.622;23.194;2023-11-21T00:53:08;91073.06;;;7.20;87.96
5952;BME280;3001;42.622;23.194;2023-11-21T00:55:36;91068.38;;;7.22;88.54
5952;BME280;3001;42.622;23.194;2023-11-21T00:58:06;91069.22;;;7.31;88.71
5952;BME280;3001;42.622;23.194;2023-11-21T01:00:33;91068.84;;;7.10;89.42
5952;BME280;3001;42.622;23.194;2023-11-21T01:02:59;91061.97;;;7.33;88.55
5952;BME280;3001;42.622;23.194;2023-11-21T01:05:27;91053.25;;;7.42;88.12
5952;BME280;3001;42.622;23.194;2023-11-21T01:07:55;91043.44;;;7.58;87.68
5952;BME280;3001;42.622;23.194;2023-11-21T01:10:21;91046.19;;;7.61;87.76
5952;BME280;3001;42.622;23.194;2023-11-21T01:12:48;91046.47;;;7.60;87.43
5952;BME280;3001;42.622;23.194;2023-11-21T01:15:16;91046.09;;;7.66;87.20
5952;BME280;3001;42.622;23.194;2023-11-21T01:17:43;91043.59;;;7.75;86.30
5952;BME280;3001;42.622;23.194;2023-11-21T01:20:10;91052.03;;;7.53;86.94
5952;BME280;3001;42.622;23.194;2023-11-21T01:22:38;91050.88;;;7.59;87.15
5952;BME280;3001;42.622;23.194;2023-11-21T01:25:05;91052.59;;;7.50;87.25
5952;BME280;3001;42.622;23.194;2023-11-21T01:27:33;91065.81;;;7.49;88.10
5952;BME280;3001;42.622;23.194;2023-11-21T01:29:59;91067.22;;;7.41;88.44
5952;BME280;3001;42.622;23.194;2023-11-21T01:32:27;91055.19;;;7.37;88.88
5952;BME280;3001;42.622;23.194;2023-11-21T01:34:55;91051.00;;;6.95;90.05
5952;BME280;3001;42.622;23.194;2023-11-21T01:37:22;91053.00;;;6.85;90.83
5952;BME280;3001;42.622;23.194;2023-11-21T01:39:49;91052.59;;;6.78;90.93
5952;BME280;3001;42.622;23.194;2023-11-21T01:42:16;91056.72;;;6.79;90.96
5952;BME280;3001;42.622;23.194;2023-11-21T01:44:43;91047.31;;;6.70;91.96
5952;BME280;3001;42.622;23.194;2023-11-21T01:47:12;91039.97;;;6.77;91.42
5952;BME280;3001;42.622;23.194;2023-11-21T01:49:43;91033.97;;;6.81;90.46
5952;BME280;3001;42.622;23.194;2023-11-21T01:52:11;91027.72;;;6.69;91.62
5952;BME280;3001;42.622;23.194;2023-11-21T01:54:38;91023.84;;;6.53;92.13
5952;BME280;3001;42.622;23.194;2023-11-21T01:57:05;91028.84;;;6.63;90.95
5952;BME280;3001;42.622;23.194;2023-11-21T01:59:34;91038.72;;;6.74;90.84
5952;BME280;3001;42.622;23.194;2023-11-21T02:02:02;91035.16;;;6.70;91.23
5952;BME280;3001;42.622;23.194;2023-11-21T02:04:31;91034.91;;;6.72;90.83
5952;BME280;3001;42.622;23.194;2023-11-21T02:06:59;91036.66;;;6.58;91.13
5952;BME280;3001;42.622;23.194;2023-11-21T02:09:26;91038.38;;;6.49;91.77
5952;BME280;3001;42.622;23.194;2023-11-21T02:11:54;91043.00;;;6.65;91.06
5952;BME280;3001;42.622;23.194;2023-11-21T02:14:20;91033.13;;;6.54;91.52
5952;BME280;3001;42.622;23.194;2023-11-21T02:16:48;91030.09;;;6.65;91.23
5952;BME280;3001;42.622;23.194;2023-11-21T02:19:18;91024.91;;;6.52;91.78
5952;BME280;3001;42.622;23.194;2023-11-21T02:21:45;91036.56;;;6.63;92.05
5952;BME280;3001;42.622;23.194;2023-11-21T02:24:14;91029.72;;;6.72;91.34
5952;BME280;3001;42.622;23.194;2023-11-21T02:26:42;91027.50;;;6.65;91.63
5952;BME280;3001;42.622;23.194;2023-11-21T02:29:09;91021.88;;;6.63;91.29
5952;BME280;3001;42.622;23.194;2023-11-21T02:31:37;91021.88;;;6.63;91.52
5952;BME280;3001;42.622;23.194;2023-11-21T02:34:13;91022.84;;;6.67;91.52
5952;BME280;3001;42.622;23.194;2023-11-21T02:36:39;91017.66;;;6.67;91.68
5952;BME280;3001;42.622;23.194;2023-11-21T02:39:08;91016.97;;;6.62;91.76
5952;BME280;3001;42.622;23.194;2023-11-21T02:41:36;91020.44;;;6.57;91.71
5952;BME280;3001;42.622;23.194;2023-11-21T02:44:03;91019.38;;;6.58;91.97
5952;BME280;3001;42.622;23.194;2023-11-21T02:46:31;90998.97;;;6.43;92.01
5952;BME280;3001;42.622;23.194;2023-11-21T02:48:59;91028.84;;;6.63;92.42
5952;BME280;3001;42.622;23.194;2023-11-21T02:51:25;91032.44;;;6.80;91.94
5952;BME280;3001;42.622;23.194;2023-11-21T02:53:52;91025.06;;;6.87;91.51
5952;BME280;3001;42.622;23.194;2023-11-21T02:56:19;91018.50;;;6.94;91.53
5952;BME280;3001;42.622;23.194;2023-11-21T02:58:47;91013.91;;;7.05;90.67
5952;BME280;3001;42.622;23.194;2023-11-21T03:01:14;91016.97;;;6.93;90.36
5952;BME280;3001;42.622;23.194;2023-11-21T03:03:41;91013.25;;;7.13;89.86
5952;BME280;3001;42.622;23.194;2023-11-21T03:06:07;91011.16;;;7.15;90.10
5952;BME280;3001;42.622;23.194;2023-11-21T03:08:34;91006.28;;;7.13;89.91
5952;BME280;3001;42.622;23.194;2023-11-21T03:11:01;91020.13;;;7.04;90.18
5952;BME280;3001;42.622;23.194;2023-11-21T03:13:29;91010.41;;;7.14;89.53
5952;BME280;3001;42.622;23.194;2023-11-21T03:15:57;91014.31;;;7.12;89.79
5952;BME280;3001;42.622;23.194;2023-11-21T03:18:24;91029.63;;;7.08;90.21
5952;BME280;3001;42.622;23.194;2023-11-21T03:20:51;91029.22;;;7.01;90.34
5952;BME280;3001;42.622;23.194;2023-11-21T03:23:18;91030.53;;;6.85;91.29
5952;BME280;3001;42.622;23.194;2023-11-21T03:25:45;91037.63;;;7.07;90.66
5952;BME280;3001;42.622;23.194;2023-11-21T03:28:12;91042.41;;;7.00;90.93
5952;BME280;3001;42.622;23.194;2023-11-21T03:30:38;91031.78;;;7.01;90.91
5952;BME280;3001;42.622;23.194;2023-11-21T03:33:06;91042.09;;;6.88;91.97
5952;BME280;3001;42.622;23.194;2023-11-21T03:35:33;91038.03;;;7.14;90.75
5952;BME280;3001;42.622;23.194;2023-11-21T03:38:00;91031.78;;;7.01;90.63
5952;BME280;3001;42.622;23.194;2023-11-21T03:40:27;91027.31;;;7.07;89.98
5952;BME280;3001;42.622;23.194;2023-11-21T03:42:53;91024.81;;;6.88;90.80
5952;BME280;3001;42.622;23.194;2023-11-21T03:45:20;91008.84;;;6.86;90.93
5952;BME280;3001;42.622;23.194;2023-11-21T03:47:47;91006.31;;;6.81;91.73
5952;BME280;3001;42.622;23.194;2023-11-21T03:50:15;91006.84;;;6.97;90.36
5952;BME280;3001;42.622;23.194;2023-11-21T03:52:42;91005.97;;;7.01;90.14
5952;BME280;3001;42.622;23.194;2023-11-21T03:55:08;90988.69;;;7.15;89.81
5952;BME280;3001;42.622;23.194;2023-11-21T03:57:35;90991.94;;;7.21;90.18
5952;BME280;3001;42.622;23.194;2023-11-21T04:00:03;90988.88;;;7.32;88.61
5952;BME280;3001;42.622;23.194;2023-11-21T04:02:33;90985.03;;;7.43;88.04
5952;BME280;3001;42.622;23.194;2023-11-21T04:05:00;90991.25;;;7.56;87.23
5952;BME280;3001;42.622;23.194;2023-11-21T04:07:28;90988.69;;;7.56;86.57
5952;BME280;3001;42.622;23.194;2023-11-21T04:09:55;90986.94;;;7.51;87.22
5952;BME280;3001;42.622;23.194;2023-11-21T04:12:22;90982.25;;;7.53;86.82
5952;BME280;3001;42.622;23.194;2023-11-21T04:14:48;90989.22;;;7.53;86.95
5952;BME280;3001;42.622;23.194;2023-11-21T04:17:17;90991.16;;;7.34;87.98
5952;BME280;3001;42.622;23.194;2023-11-21T04:19:44;90992.59;;;7.40;87.00
5952;BME280;3001;42.622;23.194;2023-11-21T04:22:11;90994.41;;;7.53;86.40
5952;BME280;3001;42.622;23.194;2023-11-21T04:24:39;90985.03;;;7.57;85.78
5952;BME280;3001;42.622;23.194;2023-11-21T04:27:06;90986.00;;;7.47;86.24
5952;BME280;3001;42.622;23.194;2023-11-21T04:29:33;90988.28;;;7.35;87.11
5952;BME280;3001;42.622;23.194;2023-11-21T04:32:01;90992.31;;;7.41;86.50
5952;BME280;3001;42.622;23.194;2023-11-21T04:34:28;90999.97;;;7.60;86.72
5952;BME280;3001;42.622;23.194;2023-11-21T04:36:56;90995.19;;;7.53;87.12
5952;BME280;3001;42.622;23.194;2023-11-21T04:39:23;90990.53;;;7.77;86.50
5952;BME280;3001;42.622;23.194;2023-11-21T04:41:51;90984.34;;;7.65;86.09
5952;BME280;3001;42.622;23.194;2023-11-21T04:44:18;90986.66;;;7.66;85.22
5952;BME280;3001;42.622;23.194;2023-11-21T04:46:44;90987.13;;;7.55;85.80
5952;BME280;3001;42.622;23.194;2023-11-21T04:49:11;90988.59;;;7.47;85.73
5952;BME280;3001;42.622;23.194;2023-11-21T04:51:38;90998.81;;;7.39;86.17
5952;BME280;3001;42.622;23.194;2023-11-21T04:54:05;90991.25;;;7.29;86.51
5952;BME280;3001;42.622;23.194;2023-11-21T04:56:32;90985.41;;;7.23;86.98
5952;BME280;3001;42.622;23.194;2023-11-21T04:59:00;90987.91;;;7.28;87.72
5952;BME280;3001;42.622;23.194;2023-11-21T05:01:26;90999.09;;;7.24;88.20
5952;BME280;3001;42.622;23.194;2023-11-21T05:03:53;90993.84;;;7.29;88.44
5952;BME280;3001;42.622;23.194;2023-11-21T05:06:20;90989.06;;;7.09;89.57
5952;BME280;3001;42.622;23.194;2023-11-21T05:08:47;90980.25;;;6.96;90.39
5952;BME280;3001;42.622;23.194;2023-11-21T05:11:23;90989.72;;;7.14;89.42
5952;BME280;3001;42.622;23.194;2023-11-21T05:13:50;90986.88;;;7.29;88.78
5952;BME280;3001;42.622;23.194;2023-11-21T05:16:19;90988.41;;;7.30;88.34
5952;BME280;3001;42.622;23.194;2023-11-21T05:18:45;90992.13;;;7.38;87.47
5952;BME280;3001;42.622;23.194;2023-11-21T05:21:12;90994.72;;;7.38;87.81
5952;BME280;3001;42.622;23.194;2023-11-21T05:23:38;90993.16;;;7.64;87.08
5952;BME280;3001;42.622;23.194;2023-11-21T05:26:05;91001.50;;;7.34;87.58
5952;BME280;3001;42.622;23.194;2023-11-21T05:28:32;91003.13;;;7.16;88.30
5952;BME280;3001;42.622;23.194;2023-11-21T05:30:59;91005.03;;;7.24;87.61
5952;BME280;3001;42.622;23.194;2023-11-21T05:33:28;91012.38;;;7.04;88.42
5952;BME280;3001;42.622;23.194;2023-11-21T05:35:55;91022.81;;;7.12;88.17
5952;BME280;3001;42.622;23.194;2023-11-21T05:38:21;91024.25;;;7.05;88.34
5952;BME280;3001;42.622;23.194;2023-11-21T05:40:48;91017.66;;;6.99;89.16
5952;BME280;3001;42.622;23.194;2023-11-21T05:43:15;91018.69;;;6.98;89.96
5952;BME280;3001;42.622;23.194;2023-11-21T05:45:41;91014.19;;;6.90;90.14
5952;BME280;3001;42.622;23.194;2023-11-21T05:48:08;91007.13;;;7.09;89.70
5952;BME280;3001;42.622;23.194;2023-11-21T05:50:36;91004.16;;;7.02;90.93
5952;BME280;3001;42.622;23.194;2023-11-21T05:53:04;91005.94;;;6.88;91.15
5952;BME280;3001;42.622;23.194;2023-11-21T05:55:30;91001.47;;;6.93;89.85
5952;BME280;3001;42.622;23.194;2023-11-21T05:57:57;91005.69;;;7.03;89.19
5952;BME280;3001;42.622;23.194;2023-11-21T06:00:24;91007.00;;;6.87;90.29
5952;BME280;3001;42.622;23.194;2023-11-21T06:02:53;90998.41;;;6.91;89.77
5952;BME280;3001;42.622;23.194;2023-11-21T06:05:22;91002.38;;;7.29;88.31
5952;BME280;3001;42.622;23.194;2023-11-21T06:07:51;91000.75;;;7.33;87.88
5952;BME280;3001;42.622;23.194;2023-11-21T06:10:20;91000.75;;;7.33;87.85
5952;BME280;3001;42.622;23.194;2023-11-21T06:12:47;90997.78;;;7.40;88.53
5952;BME280;3001;42.622;23.194;2023-11-21T06:15:14;91004.56;;;7.49;88.69
5952;BME280;3001;42.622;23.194;2023-11-21T06:17:42;91008.09;;;7.53;88.57
5952;BME280;3001;42.622;23.194;2023-11-21T06:20:10;91005.72;;;7.57;88.93
5952;BME280;3001;42.622;23.194;2023-11-21T06:22:40;91006.34;;;7.62;88.16
5952;BME280;3001;42.622;23.194;2023-11-21T06:25:10;91018.31;;;7.72;88.24
5952;BME280;3001;42.622;23.194;2023-11-21T06:27:39;91012.09;;;7.73;88.12
5952;BME280;3001;42.622;23.194;2023-11-21T06:30:07;91007.38;;;7.75;88.72
5952;BME280;3001;42.622;23.194;2023-11-21T06:32:35;91008.72;;;7.86;88.38
5952;BME280;3001;42.622;23.194;2023-11-21T06:35:02;91017.72;;;7.88;88.82
5952;BME280;3001;42.622;23.194;2023-11-21T06:37:29;91013.50;;;7.92;88.93
5952;BME280;3001;42.622;23.194;2023-11-21T06:39:57;91020.41;;;7.97;88.99
5952;BME280;3001;42.622;23.194;2023-11-21T06:42:26;91018.38;;;8.07;89.57
5952;BME280;3001;42.622;23.194;2023-11-21T06:44:54;91022.06;;;8.15;89.60
5952;BME280;3001;42.622;23.194;2023-11-21T06:47:22;91028.59;;;8.12;90.06
5952;BME280;3001;42.622;23.194;2023-11-21T06:49:50;91028.59;;;8.26;89.72
5952;BME280;3001;42.622;23.194;2023-11-21T06:52:17;91022.63;;;8.25;89.56
5952;BME280;3001;42.622;23.194;2023-11-21T06:54:44;91028.47;;;8.52;88.34
5952;BME280;3001;42.622;23.194;2023-11-21T06:57:12;91037.56;;;8.63;87.70
5952;BME280;3001;42.622;23.194;2023-11-21T06:59:41;91017.00;;;8.45;86.69
5952;BME280;3001;42.622;23.194;2023-11-21T07:02:07;91037.22;;;8.78;83.55
5952;BME280;3001;42.622;23.194;2023-11-21T07:04:34;91032.06;;;8.65;84.14
5952;BME280;3001;42.622;23.194;2023-11-21T07:07:01;91031.25;;;8.78;82.79
5952;BME280;3001;42.622;23.194;2023-11-21T07:09:28;91027.22;;;8.63;84.19
5952;BME280;3001;42.622;23.194;2023-11-21T07:11:56;91025.28;;;8.77;84.15
5952;BME280;3001;42.622;23.194;2023-11-21T07:14:23;91028.25;;;8.84;84.79
5952;BME280;3001;42.622;23.194;2023-11-21T07:16:51;91025.94;;;8.83;85.55
5952;BME280;3001;42.622;23.194;2023-11-21T07:19:18;91025.41;;;8.94;85.76
5952;BME280;3001;42.622;23.194;2023-11-21T07:21:45;91032.84;;;8.87;86.69
5952;BME280;3001;42.622;23.194;2023-11-21T07:24:11;91024.81;;;8.97;86.23
5952;BME280;3001;42.622;23.194;2023-11-21T07:26:38;91026.69;;;9.05;86.67
5952;BME280;3001;42.622;23.194;2023-11-21T07:29:06;91026.09;;;9.08;87.01
5952;BME280;3001;42.622;23.194;2023-11-21T07:31:33;91022.06;;;9.24;86.64
5952;BME280;3001;42.622;23.194;2023-11-21T07:34:02;91036.13;;;9.32;86.81
5952;BME280;3001;42.622;23.194;2023-11-21T07:36:28;91033.41;;;9.37;87.02
5952;BME280;3001;42.622;23.194;2023-11-21T07:38:55;91036.31;;;9.44;86.02
5952;BME280;3001;42.622;23.194;2023-11-21T07:41:22;91035.47;;;9.57;84.76
5952;BME280;3001;42.622;23.194;2023-11-21T07:43:48;91041.59;;;9.61;83.03
5952;BME280;3001;42.622;23.194;2023-11-21T07:46:15;91041.44;;;9.66;83.18
5952;BME280;3001;42.622;23.194;2023-11-21T07:48:42;91033.09;;;9.77;83.52
5952;BME280;3001;42.622;23.194;2023-11-21T07:51:10;91030.59;;;9.64;84.69
5952;BME280;3001;42.622;23.194;2023-11-21T07:53:38;91030.63;;;9.72;84.12
5952;BME280;3001;42.622;23.194;2023-11-21T07:56:06;91018.63;;;9.85;83.47
5952;BME280;3001;42.622;23.194;2023-11-21T07:58:34;91020.72;;;9.74;83.25
5952;BME280;3001;42.622;23.194;2023-11-21T08:01:01;91017.44;;;9.91;81.47
5952;BME280;3001;42.622;23.194;2023-11-21T08:03:28;91020.22;;;10.03;80.41
5952;BME280;3001;42.622;23.194;2023-11-21T08:05:55;91021.59;;;10.17;79.27
5952;BME280;3001;42.622;23.194;2023-11-21T08:08:24;91017.66;;;10.28;79.08
5952;BME280;3001;42.622;23.194;2023-11-21T08:10:51;91018.72;;;10.27;79.12
5952;BME280;3001;42.622;23.194;2023-11-21T08:13:22;91022.22;;;10.31;79.81
5952;BME280;3001;42.622;23.194;2023-11-21T08:15:48;91019.31;;;10.49;79.51
5952;BME280;3001;42.622;23.194;2023-11-21T08:18:15;91019.03;;;10.51;78.97
5952;BME280;3001;42.622;23.194;2023-11-21T08:20:43;91020.72;;;10.55;78.67
5952;BME280;3001;42.622;23.194;2023-11-21T08:23:13;91025.59;;;10.57;75.66
5952;BME280;3001;42.622;23.194;2023-11-21T08:25:43;91026.81;;;10.51;77.04
5952;BME280;3001;42.622;23.194;2023-11-21T08:28:10;91025.28;;;10.41;78.08
5952;BME280;3001;42.622;23.194;2023-11-21T08:30:37;91018.56;;;10.66;77.21
5952;BME280;3001;42.622;23.194;2023-11-21T08:33:03;91016.59;;;10.63;77.28
5952;BME280;3001;42.622;23.194;2023-11-21T08:35:31;91002.69;;;10.42;77.81
5952;BME280;3001;42.622;23.194;2023-11-21T08:37:57;91012.59;;;10.65;78.27
5952;BME280;3001;42.622;23.194;2023-11-21T08:40:24;91008.91;;;10.92;77.24
5952;BME280;3001;42.622;23.194;2023-11-21T08:42:52;91010.59;;;10.96;78.40
5952;BME280;3001;42.622;23.194;2023-11-21T08:45:20;91014.25;;;11.04;76.05
5952;BME280;3001;42.622;23.194;2023-11-21T08:47:47;91012.09;;;11.06;75.42
5952;BME280;3001;42.622;23.194;2023-11-21T08:50:14;91009.34;;;11.11;76.06
5952;BME280;3001;42.622;23.194;2023-11-21T08:52:41;91006.88;;;11.14;77.02
5952;BME280;3001;42.622;23.194;2023-11-21T08:55:08;90988.19;;;11.21;77.02
5952;BME280;3001;42.622;23.194;2023-11-21T08:57:38;90980.84;;;11.23;76.77
5952;BME280;3001;42.622;23.194;2023-11-21T09:00:08;90969.19;;;11.37;77.43
5952;BME280;3001;42.622;23.194;2023-11-21T09:02:37;90950.31;;;11.49;77.24
5952;BME280;3001;42.622;23.194;2023-11-21T09:05:04;90951.50;;;11.89;75.66
5952;BME280;3001;42.622;23.194;2023-11-21T09:07:31;90958.31;;;12.02;74.89
5952;BME280;3001;42.622;23.194;2023-11-21T09:09:58;90948.41;;;11.95;76.51
5952;BME280;3001;42.622;23.194;2023-11-21T09:12:25;90942.31;;;12.11;73.88
5952;BME280;3001;42.622;23.194;2023-11-21T09:14:51;90943.66;;;12.17;75.26
5952;BME280;3001;42.622;23.194;2023-11-21T09:17:20;90935.00;;;12.05;74.34
5952;BME280;3001;42.622;23.194;2023-11-21T09:19:46;90937.34;;;12.18;74.79
5952;BME280;3001;42.622;23.194;2023-11-21T09:22:16;90926.50;;;12.37;76.01
5952;BME280;3001;42.622;23.194;2023-11-21T09:24:43;90921.84;;;12.42;76.34
5952;BME280;3001;42.622;23.194;2023-11-21T09:27:10;90913.88;;;12.59;74.99
5952;BME280;3001;42.622;23.194;2023-11-21T09:29:37;90911.13;;;12.76;74.75
5952;BME280;3001;42.622;23.194;2023-11-21T09:32:05;90902.88;;;12.86;74.34
5952;BME280;3001;42.622;23.194;2023-11-21T09:34:34;90900.66;;;12.97;73.17
5952;BME280;3001;42.622;23.194;2023-11-21T09:37:03;90898.06;;;13.09;71.36
5952;BME280;3001;42.622;23.194;2023-11-21T09:39:31;90882.31;;;13.05;71.15
5952;BME280;3001;42.622;23.194;2023-11-21T09:42:04;90879.72;;;13.17;71.52
5952;BME280;3001;42.622;23.194;2023-11-21T09:44:36;90855.81;;;13.15;70.08
5952;BME280;3001;42.622;23.194;2023-11-21T09:47:09;90866.03;;;13.08;67.55
5952;BME280;3001;42.622;23.194;2023-11-21T09:49:38;90873.63;;;13.25;68.89
5952;BME280;3001;42.622;23.194;2023-11-21T09:52:08;90874.63;;;13.45;69.30
5952;BME280;3001;42.622;23.194;2023-11-21T09:54:40;90870.03;;;13.54;71.32
5952;BME280;3001;42.622;23.194;2023-11-21T09:57:07;90868.72;;;13.83;71.52
5952;BME280;3001;42.622;23.194;2023-11-21T09:59:35;90859.66;;;13.93;65.92
5952;BME280;3001;42.622;23.194;2023-11-21T10:02:03;90863.00;;;14.05;62.48
5952;BME280;3001;42.622;23.194;2023-11-21T10:04:31;90859.63;;;14.17;60.85
5952;BME280;3001;42.622;23.194;2023-11-21T10:06:59;90859.56;;;14.29;56.66
5952;BME280;3001;42.622;23.194;2023-11-21T10:09:26;90833.16;;;14.18;57.01
5952;BME280;3001;42.622;23.194;2023-11-21T10:11:54;90848.16;;;14.49;57.24
5952;BME280;3001;42.622;23.194;2023-11-21T10:14:24;90846.84;;;14.55;54.72
5952;BME280;3001;42.622;23.194;2023-11-21T10:16:54;90844.22;;;14.55;54.60
5952;BME280;3001;42.622;23.194;2023-11-21T10:19:23;90839.53;;;14.60;55.60
5952;BME280;3001;42.622;23.194;2023-11-21T10:21:50;90833.94;;;14.62;55.53
5952;BME280;3001;42.622;23.194;2023-11-21T10:24:19;90832.19;;;14.66;55.51
5952;BME280;3001;42.622;23.194;2023-11-21T10:26:46;90834.06;;;14.81;55.68
5952;BME280;3001;42.622;23.194;2023-11-21T10:29:14;90841.69;;;14.58;54.76
5952;BME280;3001;42.622;23.194;2023-11-21T10:31:42;90833.84;;;14.58;56.75
5952;BME280;3001;42.622;23.194;2023-11-21T10:34:14;90834.88;;;14.54;55.95
5952;BME280;3001;42.622;23.194;2023-11-21T10:36:41;90827.91;;;14.46;55.49
5952;BME280;3001;42.622;23.194;2023-11-21T10:39:08;90828.16;;;14.41;55.72
5952;BME280;3001;42.622;23.194;2023-11-21T10:41:37;90818.22;;;14.74;55.40
5952;BME280;3001;42.622;23.194;2023-11-21T10:44:05;90818.25;;;14.46;54.74
5952;BME280;3001;42.622;23.194;2023-11-21T10:46:34;90823.63;;;14.53;54.77
5952;BME280;3001;42.622;23.194;2023-11-21T10:49:01;90811.47;;;14.73;54.11
5952;BME280;3001;42.622;23.194;2023-11-21T10:51:28;90801.06;;;14.61;54.43
5952;BME280;3001;42.622;23.194;2023-11-21T10:53:54;90823.78;;;14.45;56.24
5952;BME280;3001;42.622;23.194;2023-11-21T10:56:23;90802.97;;;14.48;56.20
5952;BME280;3001;42.622;23.194;2023-11-21T10:58:53;90813.84;;;14.35;56.13
5952;BME280;3001;42.622;23.194;2023-11-21T11:01:21;90814.78;;;14.42;55.31
5952;BME280;3001;42.622;23.194;2023-11-21T11:03:51;90813.84;;;14.35;55.83
5952;BME280;3001;42.622;23.194;2023-11-21T11:06:21;90793.22;;;14.18;56.15
5952;BME280;3001;42.622;23.194;2023-11-21T11:08:49;90797.66;;;14.17;56.78
5952;BME280;3001;42.622;23.194;2023-11-21T11:11:16;90792.91;;;14.19;56.96
5952;BME280;3001;42.622;23.194;2023-11-21T11:13:44;90799.72;;;14.24;57.73
5952;BME280;3001;42.622;23.194;2023-11-21T11:16:13;90784.88;;;14.28;58.79
5952;BME280;3001;42.622;23.194;2023-11-21T11:18:43;90746.88;;;14.03;59.58
5952;BME280;3001;42.622;23.194;2023-11-21T11:21:16;90755.34;;;14.12;57.52
5952;BME280;3001;42.622;23.194;2023-11-21T11:24:01;90768.00;;;14.10;58.23
5952;BME280;3001;42.622;23.194;2023-11-21T11:26:39;90762.41;;;14.11;60.10
5952;BME280;3001;42.622;23.194;2023-11-21T11:29:15;90768.72;;;14.10;59.42
5952;BME280;3001;42.622;23.194;2023-11-21T11:31:55;90757.50;;;14.22;60.10
5952;BME280;3001;42.622;23.194;2023-11-21T11:34:29;90765.69;;;14.20;63.53
5952;BME280;3001;42.622;23.194;2023-11-21T11:37:00;90779.66;;;14.00;61.46
5952;BME280;3001;42.622;23.194;2023-11-21T11:39:30;90786.47;;;14.17;61.34
5952;BME280;3001;42.622;23.194;2023-11-21T11:41:57;90793.75;;;14.11;62.45
5952;BME280;3001;42.622;23.194;2023-11-21T11:44:47;90783.28;;;13.96;60.98
5952;BME280;3001;42.622;23.194;2023-11-21T11:47:20;90780.16;;;14.06;62.92
5952;BME280;3001;42.622;23.194;2023-11-21T11:50:02;90773.91;;;13.95;62.59
5952;BME280;3001;42.622;23.194;2023-11-21T11:52:36;90780.53;;;14.04;63.40
5952;BME280;3001;42.622;23.194;2023-11-21T11:55:05;90761.88;;;14.06;66.82
5952;BME280;3001;42.622;23.194;2023-11-21T11:57:34;90763.66;;;14.02;68.17
5952;BME280;3001;42.622;23.194;2023-11-21T12:00:11;90683.38;;;13.44;70.51
5952;BME280;3001;42.622;23.194;2023-11-21T12:02:44;90751.94;;;13.96;74.04
5952;BME280;3001;42.622;23.194;2023-11-21T12:05:14;90758.13;;;14.03;73.44
5952;BME280;3001;42.622;23.194;2023-11-21T12:07:42;90772.72;;;13.92;73.74
5952;BME280;3001;42.622;23.194;2023-11-21T12:10:12;90783.94;;;13.93;74.59
5952;BME280;3001;42.622;23.194;2023-11-21T12:12:42;90778.91;;;14.00;74.42
5952;BME280;3001;42.622;23.194;2023-11-21T12:15:10;90767.78;;;13.76;74.36
5952;BME280;3001;42.622;23.194;2023-11-21T12:17:38;90774.34;;;13.97;74.83
5952;BME280;3001;42.622;23.194;2023-11-21T12:20:07;90758.66;;;13.70;75.52
5952;BME280;3001;42.622;23.194;2023-11-21T12:22:42;90751.78;;;13.77;76.24
5952;BME280;3001;42.622;23.194;2023-11-21T12:25:09;90763.84;;;14.09;77.87
5952;BME280;3001;42.622;23.194;2023-11-21T12:27:40;90768.47;;;13.88;78.31
5952;BME280;3001;42.622;23.194;2023-11-21T12:30:08;90773.47;;;13.66;77.72
5952;BME280;3001;42.622;23.194;2023-11-21T12:32:39;90762.19;;;13.62;80.07
5952;BME280;3001;42.622;23.194;2023-11-21T12:35:08;90762.09;;;13.46;81.35
5952;BME280;3001;42.622;23.194;2023-11-21T12:37:36;90759.03;;;13.44;81.18
5952;BME280;3001;42.622;23.194;2023-11-21T12:40:04;90753.09;;;13.32;82.77
5952;BME280;3001;42.622;23.194;2023-11-21T12:42:31;90745.50;;;13.27;83.05
5952;BME280;3001;42.622;23.194;2023-11-21T12:45:09;90749.63;;;13.16;85.29
5952;BME280;3001;42.622;23.194;2023-11-21T12:47:41;90733.25;;;12.91;85.27
5952;BME280;3001;42.622;23.194;2023-11-21T12:50:09;90727.28;;;12.67;87.38
5952;BME280;3001;42.622;23.194;2023-11-21T12:52:41;90733.88;;;12.64;87.86
5952;BME280;3001;42.622;23.194;2023-11-21T12:55:09;90731.94;;;12.73;84.27
5952;BME280;3001;42.622;23.194;2023-11-21T12:57:41;90717.59;;;12.79;82.40
5952;BME280;3001;42.622;23.194;2023-11-21T13:00:10;90714.13;;;12.51;84.02
5952;BME280;3001;42.622;23.194;2023-11-21T13:02:51;90714.78;;;12.48;81.22
5952;BME280;3001;42.622;23.194;2023-11-21T13:05:26;90711.41;;;12.24;80.30
5952;BME280;3001;42.622;23.194;2023-11-21T13:07:53;90710.97;;;12.70;77.97
5952;BME280;3001;42.622;23.194;2023-11-21T13:10:23;90714.56;;;12.89;78.58
5952;BME280;3001;42.622;23.194;2023-11-21T13:12:53;90716.09;;;12.66;76.29
5952;BME280;3001;42.622;23.194;2023-11-21T13:15:20;90708.72;;;12.56;74.23
5952;BME280;3001;42.622;23.194;2023-11-21T13:17:47;90707.09;;;12.40;73.53
5952;BME280;3001;42.622;23.194;2023-11-21T13:20:15;90719.03;;;12.65;71.12
5952;BME280;3001;42.622;23.194;2023-11-21T13:22:48;90717.59;;;12.79;70.92